sensor_id;sensor_type;location;lat;lon;timestamp;temperature;humidity
47765;DHT22;33529;49.242;8.670;2023-04-02T00:04:05;8.80;99.90
47765;DHT22;33529;49.242;8.670;2023-04-02T00:06:37;8.70;99.90
47765;DHT22;33529;49.242;8.670;2023-04-02T00:11:45;8.80;99.90
47765;DHT22;33529;49.242;8.670;2023-04-02T00:14:23;8.80;99.90
47765;DHT22;33529;49.242;8.670;2023-04-02T00:16:52;8.80;99.90
47765;DHT22;33529;49.242;8.670;2023-04-02T00:21:56;8.80;99.90
47765;DHT22;33529;49.242;8.670;2023-04-02T00:24:23;8.80;99.90
47765;DHT22;33529;49.242;8.670;2023-04-02T00:26:52;8.80;99.90
47765;DHT22;33529;49.242;8.670;2023-04-02T00:29:19;8.80;99.90
47765;DHT22;33529;49.242;8.670;2023-04-02T00:31:49;8.80;99.90
47765;DHT22;33529;49.242;8.670;2023-04-02T00:34:37;8.90;99.90
47765;DHT22;33529;49.242;8.670;2023-04-02T00:37:09;8.90;99.90
47765;DHT22;33529;49.242;8.670;2023-04-02T00:39:43;8.90;99.90
47765;DHT22;33529;49.242;8.670;2023-04-02T00:42:11;8.80;99.90
47765;DHT22;33529;49.242;8.670;2023-04-02T00:44:40;8.80;99.90
47765;DHT22;33529;49.242;8.670;2023-04-02T00:47:23;8.80;99.90
47765;DHT22;33529;49.242;8.670;2023-04-02T00:52:38;8.90;99.90
47765;DHT22;33529;49.242;8.670;2023-04-02T00:55:22;8.90;99.90
47765;DHT22;33529;49.242;8.670;2023-04-02T00:57:50;8.80;99.90
47765;DHT22;33529;49.242;8.670;2023-04-02T01:00:30;8.90;99.90
47765;DHT22;33529;49.242;8.670;2023-04-02T01:06:10;8.80;99.90
47765;DHT22;33529;49.242;8.670;2023-04-02T01:17:42;8.70;99.90
47765;DHT22;33529;49.242;8.670;2023-04-02T01:23:31;8.70;99.90
47765;DHT22;33529;49.242;8.670;2023-04-02T01:29:09;8.70;99.90
47765;DHT22;33529;49.242;8.670;2023-04-02T01:31:38;8.70;99.90
47765;DHT22;33529;49.242;8.670;2023-04-02T01:34:09;8.60;99.90
47765;DHT22;33529;49.242;8.670;2023-04-02T01:44:49;8.50;99.90
47765;DHT22;33529;49.242;8.670;2023-04-02T01:47:20;8.50;99.90
47765;DHT22;33529;49.242;8.670;2023-04-02T01:49:47;8.40;99.90
47765;DHT22;33529;49.242;8.670;2023-04-02T01:52:25;8.40;99.90
47765;DHT22;33529;49.242;8.670;2023-04-02T01:55:00;8.40;99.90
47765;DHT22;33529;49.242;8.670;2023-04-02T01:57:27;8.40;99.90
47765;DHT22;33529;49.242;8.670;2023-04-02T01:59:54;8.40;99.90
47765;DHT22;33529;49.242;8.670;2023-04-02T02:02:21;8.40;99.90
47765;DHT22;33529;49.242;8.670;2023-04-02T02:04:48;8.40;99.90
47765;DHT22;33529;49.242;8.670;2023-04-02T02:07:17;8.40;99.90
47765;DHT22;33529;49.242;8.670;2023-04-02T02:09:50;8.40;99.90
47765;DHT22;33529;49.242;8.670;2023-04-02T02:12:17;8.40;99.90
47765;DHT22;33529;49.242;8.670;2023-04-02T02:14:47;8.50;99.90
47765;DHT22;33529;49.242;8.670;2023-04-02T02:17:23;8.50;99.90
47765;DHT22;33529;49.242;8.670;2023-04-02T02:19:55;8.40;99.90
47765;DHT22;33529;49.242;8.670;2023-04-02T02:22:30;8.40;99.90
47765;DHT22;33529;49.242;8.670;2023-04-02T02:25:00;8.40;99.90
47765;DHT22;33529;49.242;8.670;2023-04-02T02:27:44;8.40;99.90
47765;DHT22;33529;49.242;8.670;2023-04-02T02:32:56;8.40;99.90
47765;DHT22;33529;49.242;8.670;2023-04-02T02:35:33;8.40;99.90
47765;DHT22;33529;49.242;8.670;2023-04-02T02:41:06;8.40;99.90
47765;DHT22;33529;49.242;8.670;2023-04-02T02:43:34;8.40;99.90
47765;DHT22;33529;49.242;8.670;2023-04-02T02:46:07;8.40;99.90
47765;DHT22;33529;49.242;8.670;2023-04-02T02:48:43;8.40;99.90
47765;DHT22;33529;49.242;8.670;2023-04-02T02:51:29;8.40;99.90
47765;DHT22;33529;49.242;8.670;2023-04-02T02:54:01;8.50;99.90
47765;DHT22;33529;49.242;8.670;2023-04-02T02:56:30;8.40;99.90
47765;DHT22;33529;49.242;8.670;2023-04-02T02:58:59;8.50;99.90
47765;DHT22;33529;49.242;8.670;2023-04-02T03:01:31;8.50;99.90
47765;DHT22;33529;49.242;8.670;2023-04-02T03:04:02;8.50;99.90
47765;DHT22;33529;49.242;8.670;2023-04-02T03:06:31;8.40;99.90
47765;DHT22;33529;49.242;8.670;2023-04-02T03:11:51;8.50;99.90
47765;DHT22;33529;49.242;8.670;2023-04-02T03:14:30;8.40;99.90
47765;DHT22;33529;49.242;8.670;2023-04-02T03:17:33;8.40;99.90
47765;DHT22;33529;49.242;8.670;2023-04-02T03:20:17;8.40;99.90
47765;DHT22;33529;49.242;8.670;2023-04-02T03:23:06;8.40;99.90
47765;DHT22;33529;49.242;8.670;2023-04-02T03:25:42;8.40;99.90
47765;DHT22;33529;49.242;8.670;2023-04-02T03:28:15;8.40;99.90
47765;DHT22;33529;49.242;8.670;2023-04-02T03:30:53;8.30;99.90
47765;DHT22;33529;49.242;8.670;2023-04-02T03:33:28;8.40;99.90
47765;DHT22;33529;49.242;8.670;2023-04-02T03:38:43;8.40;99.90
47765;DHT22;33529;49.242;8.670;2023-04-02T03:41:24;8.30;99.90
47765;DHT22;33529;49.242;8.670;2023-04-02T03:43:57;8.30;99.90
47765;DHT22;33529;49.242;8.670;2023-04-02T03:46:30;8.30;99.90
47765;DHT22;33529;49.242;8.670;2023-04-02T03:49:13;8.30;99.90
47765;DHT22;33529;49.242;8.670;2023-04-02T03:51:52;8.20;99.90
47765;DHT22;33529;49.242;8.670;2023-04-02T03:54:22;8.30;99.90
47765;DHT22;33529;49.242;8.670;2023-04-02T03:56:51;8.30;99.90
47765;DHT22;33529;49.242;8.670;2023-04-02T04:02:44;8.20;99.90
47765;DHT22;33529;49.242;8.670;2023-04-02T04:05:25;8.20;99.90
47765;DHT22;33529;49.242;8.670;2023-04-02T04:08:02;8.20;99.90
47765;DHT22;33529;49.242;8.670;2023-04-02T04:10:30;8.20;99.90
47765;DHT22;33529;49.242;8.670;2023-04-02T04:13:23;8.20;99.90
47765;DHT22;33529;49.242;8.670;2023-04-02T04:16:00;8.20;99.90
47765;DHT22;33529;49.242;8.670;2023-04-02T04:18:40;8.20;99.90
47765;DHT22;33529;49.242;8.670;2023-04-02T04:21:24;8.20;99.90
47765;DHT22;33529;49.242;8.670;2023-04-02T04:24:19;8.20;99.90
47765;DHT22;33529;49.242;8.670;2023-04-02T04:27:04;8.20;99.90
47765;DHT22;33529;49.242;8.670;2023-04-02T04:29:45;8.20;99.90
47765;DHT22;33529;49.242;8.670;2023-04-02T04:32:34;8.20;99.90
47765;DHT22;33529;49.242;8.670;2023-04-02T04:37:58;8.20;99.90
47765;DHT22;33529;49.242;8.670;2023-04-02T04:40:36;8.20;99.90
47765;DHT22;33529;49.242;8.670;2023-04-02T04:43:08;8.20;99.90
47765;DHT22;33529;49.242;8.670;2023-04-02T04:45:55;8.20;99.90
47765;DHT22;33529;49.242;8.670;2023-04-02T04:48:32;8.20;99.90
47765;DHT22;33529;49.242;8.670;2023-04-02T04:51:32;8.30;99.90
47765;DHT22;33529;49.242;8.670;2023-04-02T04:53:56;8.30;99.90
47765;DHT22;33529;49.242;8.670;2023-04-02T04:56:29;8.30;99.90
47765;DHT22;33529;49.242;8.670;2023-04-02T04:59:28;8.40;99.90
47765;DHT22;33529;49.242;8.670;2023-04-02T05:02:02;8.40;99.90
47765;DHT22;33529;49.242;8.670;2023-04-02T05:04:37;8.40;99.90
47765;DHT22;33529;49.242;8.670;2023-04-02T05:07:15;8.40;99.90
47765;DHT22;33529;49.242;8.670;2023-04-02T05:10:27;8.40;99.90
47765;DHT22;33529;49.242;8.670;2023-04-02T05:13:06;8.40;99.90
47765;DHT22;33529;49.242;8.670;2023-04-02T05:15:51;8.40;99.90
47765;DHT22;33529;49.242;8.670;2023-04-02T05:21:41;8.50;99.90
47765;DHT22;33529;49.242;8.670;2023-04-02T05:24:27;8.50;99.90
47765;DHT22;33529;49.242;8.670;2023-04-02T05:27:08;8.50;99.90
47765;DHT22;33529;49.242;8.670;2023-04-02T05:29:40;8.50;99.90
47765;DHT22;33529;49.242;8.670;2023-04-02T05:34:46;8.50;99.90
47765;DHT22;33529;49.242;8.670;2023-04-02T05:37:19;8.40;99.90
47765;DHT22;33529;49.242;8.670;2023-04-02T05:39:52;8.40;99.90
47765;DHT22;33529;49.242;8.670;2023-04-02T05:42:27;8.40;99.90
47765;DHT22;33529;49.242;8.670;2023-04-02T05:47:44;8.50;99.90
47765;DHT22;33529;49.242;8.670;2023-04-02T05:50:26;8.50;99.90
47765;DHT22;33529;49.242;8.670;2023-04-02T05:53:02;8.60;99.90
47765;DHT22;33529;49.242;8.670;2023-04-02T05:55:48;8.50;99.90
47765;DHT22;33529;49.242;8.670;2023-04-02T06:03:57;8.60;99.90
47765;DHT22;33529;49.242;8.670;2023-04-02T06:09:36;8.70;99.90
47765;DHT22;33529;49.242;8.670;2023-04-02T06:14:53;8.70;99.90
47765;DHT22;33529;49.242;8.670;2023-04-02T06:17:24;8.70;99.90
47765;DHT22;33529;49.242;8.670;2023-04-02T06:19:53;8.70;99.90
47765;DHT22;33529;49.242;8.670;2023-04-02T06:22:36;8.80;99.90
47765;DHT22;33529;49.242;8.670;2023-04-02T06:25:21;8.80;99.90
47765;DHT22;33529;49.242;8.670;2023-04-02T06:27:53;8.80;99.90
47765;DHT22;33529;49.242;8.670;2023-04-02T06:30:24;8.80;99.90
47765;DHT22;33529;49.242;8.670;2023-04-02T06:32:55;8.80;99.90
47765;DHT22;33529;49.242;8.670;2023-04-02T06:35:23;8.90;99.90
47765;DHT22;33529;49.242;8.670;2023-04-02T06:37:58;9.00;99.90
47765;DHT22;33529;49.242;8.670;2023-04-02T06:40:48;9.00;99.90
47765;DHT22;33529;49.242;8.670;2023-04-02T06:46:30;8.90;99.90
47765;DHT22;33529;49.242;8.670;2023-04-02T06:49:10;8.90;99.90
47765;DHT22;33529;49.242;8.670;2023-04-02T06:51:41;9.00;99.90
47765;DHT22;33529;49.242;8.670;2023-04-02T06:54:15;9.00;99.90
47765;DHT22;33529;49.242;8.670;2023-04-02T06:56:47;9.10;99.90
47765;DHT22;33529;49.242;8.670;2023-04-02T06:59:22;9.20;99.90
47765;DHT22;33529;49.242;8.670;2023-04-02T07:01:53;9.20;99.90
47765;DHT22;33529;49.242;8.670;2023-04-02T07:04:23;9.20;99.90
47765;DHT22;33529;49.242;8.670;2023-04-02T07:06:52;9.20;99.90
47765;DHT22;33529;49.242;8.670;2023-04-02T07:09:21;9.30;99.90
47765;DHT22;33529;49.242;8.670;2023-04-02T07:11:52;9.30;99.90
47765;DHT22;33529;49.242;8.670;2023-04-02T07:14:19;9.30;99.90
47765;DHT22;33529;49.242;8.670;2023-04-02T07:16:50;9.20;99.90
47765;DHT22;33529;49.242;8.670;2023-04-02T07:19:19;9.30;99.90
47765;DHT22;33529;49.242;8.670;2023-04-02T07:21:52;9.30;99.90
47765;DHT22;33529;49.242;8.670;2023-04-02T07:24:20;9.40;99.90
47765;DHT22;33529;49.242;8.670;2023-04-02T07:26:47;9.50;99.90
47765;DHT22;33529;49.242;8.670;2023-04-02T07:29:15;9.50;99.90
47765;DHT22;33529;49.242;8.670;2023-04-02T07:31:43;9.50;99.90
47765;DHT22;33529;49.242;8.670;2023-04-02T07:34:12;9.60;99.90
47765;DHT22;33529;49.242;8.670;2023-04-02T07:36:38;9.60;99.90
47765;DHT22;33529;49.242;8.670;2023-04-02T07:39:05;9.70;99.90
47765;DHT22;33529;49.242;8.670;2023-04-02T07:41:32;9.70;99.90
47765;DHT22;33529;49.242;8.670;2023-04-02T07:43:59;9.80;99.90
47765;DHT22;33529;49.242;8.670;2023-04-02T07:46:26;9.80;99.90
47765;DHT22;33529;49.242;8.670;2023-04-02T07:48:52;10.00;99.90
47765;DHT22;33529;49.242;8.670;2023-04-02T07:51:23;10.00;99.90
47765;DHT22;33529;49.242;8.670;2023-04-02T07:53:51;10.00;99.90
47765;DHT22;33529;49.242;8.670;2023-04-02T07:56:23;10.00;99.90
47765;DHT22;33529;49.242;8.670;2023-04-02T07:58:51;10.10;99.90
47765;DHT22;33529;49.242;8.670;2023-04-02T08:01:20;10.10;99.90
47765;DHT22;33529;49.242;8.670;2023-04-02T08:03:49;10.10;99.90
47765;DHT22;33529;49.242;8.670;2023-04-02T08:06:19;10.20;99.90
47765;DHT22;33529;49.242;8.670;2023-04-02T08:08:46;10.10;99.90
47765;DHT22;33529;49.242;8.670;2023-04-02T08:11:13;10.20;99.90
47765;DHT22;33529;49.242;8.670;2023-04-02T08:13:40;10.10;99.90
47765;DHT22;33529;49.242;8.670;2023-04-02T08:16:08;10.20;99.90
47765;DHT22;33529;49.242;8.670;2023-04-02T08:18:35;10.20;99.90
47765;DHT22;33529;49.242;8.670;2023-04-02T08:21:05;10.20;99.90
47765;DHT22;33529;49.242;8.670;2023-04-02T08:23:32;10.20;99.90
47765;DHT22;33529;49.242;8.670;2023-04-02T08:25:58;10.30;99.90
47765;DHT22;33529;49.242;8.670;2023-04-02T08:28:25;10.30;99.90
47765;DHT22;33529;49.242;8.670;2023-04-02T08:30:52;10.20;99.90
47765;DHT22;33529;49.242;8.670;2023-04-02T08:33:20;10.20;99.90
47765;DHT22;33529;49.242;8.670;2023-04-02T08:35:48;10.20;99.90
47765;DHT22;33529;49.242;8.670;2023-04-02T08:38:18;10.30;99.90
47765;DHT22;33529;49.242;8.670;2023-04-02T08:40:48;10.30;99.90
47765;DHT22;33529;49.242;8.670;2023-04-02T08:48:53;10.20;99.90
47765;DHT22;33529;49.242;8.670;2023-04-02T08:51:33;10.20;99.90
47765;DHT22;33529;49.242;8.670;2023-04-02T08:59:40;10.30;99.90
47765;DHT22;33529;49.242;8.670;2023-04-02T09:04:50;10.20;99.90
47765;DHT22;33529;49.242;8.670;2023-04-02T09:07:17;10.20;99.90
47765;DHT22;33529;49.242;8.670;2023-04-02T09:09:48;10.10;99.90
47765;DHT22;33529;49.242;8.670;2023-04-02T09:12:23;10.20;99.90
47765;DHT22;33529;49.242;8.670;2023-04-02T09:17:30;10.40;99.90
47765;DHT22;33529;49.242;8.670;2023-04-02T09:20:20;10.30;99.90
47765;DHT22;33529;49.242;8.670;2023-04-02T09:22:49;10.30;99.90
47765;DHT22;33529;49.242;8.670;2023-04-02T09:25:23;10.20;99.90
47765;DHT22;33529;49.242;8.670;2023-04-02T09:27:54;10.10;99.90
47765;DHT22;33529;49.242;8.670;2023-04-02T09:33:02;9.90;99.90
47765;DHT22;33529;49.242;8.670;2023-04-02T09:38:25;9.80;99.90
47765;DHT22;33529;49.242;8.670;2023-04-02T09:41:07;9.80;99.90
47765;DHT22;33529;49.242;8.670;2023-04-02T09:43:44;9.90;99.90
47765;DHT22;33529;49.242;8.670;2023-04-02T09:46:24;10.00;99.90
47765;DHT22;33529;49.242;8.670;2023-04-02T09:48:57;10.30;99.90
47765;DHT22;33529;49.242;8.670;2023-04-02T09:51:28;10.50;99.90
47765;DHT22;33529;49.242;8.670;2023-04-02T09:56:32;10.70;99.90
47765;DHT22;33529;49.242;8.670;2023-04-02T10:01:40;11.00;99.90
47765;DHT22;33529;49.242;8.670;2023-04-02T10:06:59;11.40;99.90
47765;DHT22;33529;49.242;8.670;2023-04-02T10:09:31;11.50;99.90
47765;DHT22;33529;49.242;8.670;2023-04-02T10:12:05;11.70;99.90
47765;DHT22;33529;49.242;8.670;2023-04-02T10:14:37;11.80;99.90
47765;DHT22;33529;49.242;8.670;2023-04-02T10:17:19;11.90;99.90
47765;DHT22;33529;49.242;8.670;2023-04-02T10:19:51;11.90;99.90
47765;DHT22;33529;49.242;8.670;2023-04-02T10:22:21;12.10;99.90
47765;DHT22;33529;49.242;8.670;2023-04-02T10:24:49;12.10;99.90
47765;DHT22;33529;49.242;8.670;2023-04-02T10:30:21;12.10;99.90
47765;DHT22;33529;49.242;8.670;2023-04-02T10:33:02;12.40;99.90
47765;DHT22;33529;49.242;8.670;2023-04-02T10:36:50;12.50;99.90
47765;DHT22;33529;49.242;8.670;2023-04-02T10:38:52;12.70;99.90
47765;DHT22;33529;49.242;8.670;2023-04-02T10:50:24;13.30;99.90
47765;DHT22;33529;49.242;8.670;2023-04-02T10:53:14;13.70;99.90
47765;DHT22;33529;49.242;8.670;2023-04-02T10:55:50;13.90;99.90
47765;DHT22;33529;49.242;8.670;2023-04-02T10:58:23;13.80;99.90
47765;DHT22;33529;49.242;8.670;2023-04-02T11:00:54;13.90;99.90
47765;DHT22;33529;49.242;8.670;2023-04-02T11:06:19;14.40;99.90
47765;DHT22;33529;49.242;8.670;2023-04-02T11:08:50;14.80;99.90
47765;DHT22;33529;49.242;8.670;2023-04-02T11:11:43;15.10;99.90
47765;DHT22;33529;49.242;8.670;2023-04-02T11:14:29;15.40;99.90
47765;DHT22;33529;49.242;8.670;2023-04-02T11:16:59;15.30;99.90
47765;DHT22;33529;49.242;8.670;2023-04-02T11:19:44;15.40;99.90
47765;DHT22;33529;49.242;8.670;2023-04-02T11:22:24;15.20;99.90
47765;DHT22;33529;49.242;8.670;2023-04-02T11:24:52;15.30;99.90
47765;DHT22;33529;49.242;8.670;2023-04-02T11:27:33;15.40;99.90
47765;DHT22;33529;49.242;8.670;2023-04-02T11:30:24;15.60;99.90
47765;DHT22;33529;49.242;8.670;2023-04-02T11:32:51;15.60;99.90
47765;DHT22;33529;49.242;8.670;2023-04-02T11:35:34;15.70;99.90
47765;DHT22;33529;49.242;8.670;2023-04-02T11:40:46;15.70;99.90
47765;DHT22;33529;49.242;8.670;2023-04-02T11:48:44;14.20;99.90
47765;DHT22;33529;49.242;8.670;2023-04-02T11:53:57;13.40;99.90
47765;DHT22;33529;49.242;8.670;2023-04-02T11:56:30;13.20;99.90
47765;DHT22;33529;49.242;8.670;2023-04-02T11:59:23;13.00;99.90
47765;DHT22;33529;49.242;8.670;2023-04-02T12:05:18;12.80;99.90
47765;DHT22;33529;49.242;8.670;2023-04-02T12:08:01;12.70;99.90
47765;DHT22;33529;49.242;8.670;2023-04-02T12:10:50;12.70;99.90
47765;DHT22;33529;49.242;8.670;2023-04-02T12:16:11;12.50;99.90
47765;DHT22;33529;49.242;8.670;2023-04-02T12:18:52;12.20;99.90
47765;DHT22;33529;49.242;8.670;2023-04-02T12:21:22;11.80;99.90
47765;DHT22;33529;49.242;8.670;2023-04-02T12:23:51;11.50;99.90
47765;DHT22;33529;49.242;8.670;2023-04-02T12:26:34;10.80;99.90
47765;DHT22;33529;49.242;8.670;2023-04-02T12:31:45;10.30;99.90
47765;DHT22;33529;49.242;8.670;2023-04-02T12:34:14;10.30;99.90
47765;DHT22;33529;49.242;8.670;2023-04-02T12:37:02;10.20;99.90
47765;DHT22;33529;49.242;8.670;2023-04-02T12:39:33;10.20;99.90
47765;DHT22;33529;49.242;8.670;2023-04-02T12:42:00;10.10;99.90
47765;DHT22;33529;49.242;8.670;2023-04-02T12:44:31;10.00;99.90
47765;DHT22;33529;49.242;8.670;2023-04-02T12:46:58;10.00;99.90
47765;DHT22;33529;49.242;8.670;2023-04-02T12:49:40;10.00;99.90
47765;DHT22;33529;49.242;8.670;2023-04-02T12:52:13;10.00;99.90
47765;DHT22;33529;49.242;8.670;2023-04-02T12:54:48;10.00;99.90
47765;DHT22;33529;49.242;8.670;2023-04-02T12:57:31;10.00;99.90
47765;DHT22;33529;49.242;8.670;2023-04-02T13:05:48;10.10;99.90
47765;DHT22;33529;49.242;8.670;2023-04-02T13:08:24;9.90;99.90
47765;DHT22;33529;49.242;8.670;2023-04-02T13:10:56;9.90;99.90
47765;DHT22;33529;49.242;8.670;2023-04-02T13:13:30;9.90;99.90
47765;DHT22;33529;49.242;8.670;2023-04-02T13:16:06;9.80;99.90
47765;DHT22;33529;49.242;8.670;2023-04-02T13:18:48;9.80;99.90
47765;DHT22;33529;49.242;8.670;2023-04-02T13:23:45;9.90;99.90
47765;DHT22;33529;49.242;8.670;2023-04-02T13:26:23;9.90;99.90
47765;DHT22;33529;49.242;8.670;2023-04-02T13:31:30;10.00;99.90
47765;DHT22;33529;49.242;8.670;2023-04-02T13:33:57;9.90;99.90
47765;DHT22;33529;49.242;8.670;2023-04-02T13:36:24;9.90;99.90
47765;DHT22;33529;49.242;8.670;2023-04-02T13:38:55;9.90;99.90
47765;DHT22;33529;49.242;8.670;2023-04-02T13:41:27;10.00;99.90
47765;DHT22;33529;49.242;8.670;2023-04-02T13:43:56;10.00;99.90
47765;DHT22;33529;49.242;8.670;2023-04-02T13:46:33;10.00;99.90
47765;DHT22;33529;49.242;8.670;2023-04-02T13:49:00;9.90;99.90
47765;DHT22;33529;49.242;8.670;2023-04-02T13:51:50;9.90;99.90
47765;DHT22;33529;49.242;8.670;2023-04-02T13:54:31;10.00;99.90
47765;DHT22;33529;49.242;8.670;2023-04-02T13:57:00;10.00;99.90
47765;DHT22;33529;49.242;8.670;2023-04-02T13:59:27;10.00;99.90
47765;DHT22;33529;49.242;8.670;2023-04-02T14:01:57;9.80;99.90
47765;DHT22;33529;49.242;8.670;2023-04-02T14:04:31;9.90;99.90
47765;DHT22;33529;49.242;8.670;2023-04-02T14:10:06;9.80;99.90
47765;DHT22;33529;49.242;8.670;2023-04-02T14:23:55;9.60;99.90
47765;DHT22;33529;49.242;8.670;2023-04-02T14:26:59;9.60;99.90
47765;DHT22;33529;49.242;8.670;2023-04-02T14:32:20;9.60;99.90
47765;DHT22;33529;49.242;8.670;2023-04-02T14:38:23;9.60;99.90
47765;DHT22;33529;49.242;8.670;2023-04-02T14:40:58;9.60;99.90
47765;DHT22;33529;49.242;8.670;2023-04-02T14:43:44;9.50;99.90
47765;DHT22;33529;49.242;8.670;2023-04-02T14:46:13;9.50;99.90
47765;DHT22;33529;49.242;8.670;2023-04-02T14:48:57;9.40;99.90
47765;DHT22;33529;49.242;8.670;2023-04-02T14:51:30;9.50;99.90
47765;DHT22;33529;49.242;8.670;2023-04-02T14:56:38;9.40;99.90
47765;DHT22;33529;49.242;8.670;2023-04-02T14:59:35;9.50;99.90
47765;DHT22;33529;49.242;8.670;2023-04-02T15:02:16;9.50;99.90
47765;DHT22;33529;49.242;8.670;2023-04-02T15:04:54;9.40;99.90
47765;DHT22;33529;49.242;8.670;2023-04-02T15:07:26;9.40;99.90
47765;DHT22;33529;49.242;8.670;2023-04-02T15:13:05;9.40;99.90
47765;DHT22;33529;49.242;8.670;2023-04-02T15:15:41;9.20;99.90
47765;DHT22;33529;49.242;8.670;2023-04-02T15:18:12;9.30;99.90
47765;DHT22;33529;49.242;8.670;2023-04-02T15:21:03;9.20;99.90
47765;DHT22;33529;49.242;8.670;2023-04-02T15:30:06;9.10;99.90
47765;DHT22;33529;49.242;8.670;2023-04-02T15:32:37;9.10;99.90
47765;DHT22;33529;49.242;8.670;2023-04-02T15:37:44;9.10;99.90
47765;DHT22;33529;49.242;8.670;2023-04-02T15:43:05;8.90;99.90
47765;DHT22;33529;49.242;8.670;2023-04-02T15:45:53;8.80;99.90
47765;DHT22;33529;49.242;8.670;2023-04-02T15:51:16;9.00;99.90
47765;DHT22;33529;49.242;8.670;2023-04-02T16:01:49;8.90;99.90
47765;DHT22;33529;49.242;8.670;2023-04-02T16:04:44;8.90;99.90
47765;DHT22;33529;49.242;8.670;2023-04-02T16:07:23;8.80;99.90
47765;DHT22;33529;49.242;8.670;2023-04-02T16:10:03;9.00;99.90
47765;DHT22;33529;49.242;8.670;2023-04-02T16:12:32;9.00;99.90
47765;DHT22;33529;49.242;8.670;2023-04-02T16:15:13;9.00;99.90
47765;DHT22;33529;49.242;8.670;2023-04-02T16:17:44;9.00;99.90
47765;DHT22;33529;49.242;8.670;2023-04-02T16:20:34;8.90;99.90
47765;DHT22;33529;49.242;8.670;2023-04-02T16:23:10;8.90;99.90
47765;DHT22;33529;49.242;8.670;2023-04-02T16:26:07;8.80;99.90
47765;DHT22;33529;49.242;8.670;2023-04-02T16:31:44;8.80;99.90
47765;DHT22;33529;49.242;8.670;2023-04-02T16:37:34;8.70;99.90
47765;DHT22;33529;49.242;8.670;2023-04-02T16:42:50;8.60;99.90
47765;DHT22;33529;49.242;8.670;2023-04-02T16:48:31;8.50;99.90
47765;DHT22;33529;49.242;8.670;2023-04-02T16:51:16;8.40;99.90
47765;DHT22;33529;49.242;8.670;2023-04-02T16:53:53;8.40;99.90
47765;DHT22;33529;49.242;8.670;2023-04-02T16:56:48;8.20;99.90
47765;DHT22;33529;49.242;8.670;2023-04-02T17:02:19;8.20;99.90
47765;DHT22;33529;49.242;8.670;2023-04-02T17:07:39;8.00;99.90
47765;DHT22;33529;49.242;8.670;2023-04-02T17:10:31;8.00;99.90
47765;DHT22;33529;49.242;8.670;2023-04-02T17:13:16;8.00;99.90
47765;DHT22;33529;49.242;8.670;2023-04-02T17:16:07;8.00;99.90
47765;DHT22;33529;49.242;8.670;2023-04-02T17:18:41;8.00;99.90
47765;DHT22;33529;49.242;8.670;2023-04-02T17:21:13;8.00;99.90
47765;DHT22;33529;49.242;8.670;2023-04-02T17:23:48;7.90;99.90
47765;DHT22;33529;49.242;8.670;2023-04-02T17:26:19;7.80;99.90
47765;DHT22;33529;49.242;8.670;2023-04-02T17:28:48;7.70;99.90
47765;DHT22;33529;49.242;8.670;2023-04-02T17:31:24;7.70;99.90
47765;DHT22;33529;49.242;8.670;2023-04-02T17:33:51;7.60;99.90
47765;DHT22;33529;49.242;8.670;2023-04-02T17:45:44;7.40;99.90
47765;DHT22;33529;49.242;8.670;2023-04-02T17:48:26;7.40;99.90
47765;DHT22;33529;49.242;8.670;2023-04-02T17:51:15;7.30;99.90
47765;DHT22;33529;49.242;8.670;2023-04-02T17:53:58;7.20;99.90
47765;DHT22;33529;49.242;8.670;2023-04-02T17:59:53;7.00;99.90
47765;DHT22;33529;49.242;8.670;2023-04-02T18:08:17;7.00;99.90
47765;DHT22;33529;49.242;8.670;2023-04-02T18:11:05;6.90;99.90
47765;DHT22;33529;49.242;8.670;2023-04-02T18:13:40;6.80;99.90
47765;DHT22;33529;49.242;8.670;2023-04-02T18:19:15;6.90;99.90
47765;DHT22;33529;49.242;8.670;2023-04-02T18:22:15;6.90;99.90
47765;DHT22;33529;49.242;8.670;2023-04-02T18:27:51;6.70;99.90
47765;DHT22;33529;49.242;8.670;2023-04-02T18:30:30;6.60;99.90
47765;DHT22;33529;49.242;8.670;2023-04-02T18:38:20;6.60;99.90
47765;DHT22;33529;49.242;8.670;2023-04-02T18:43:28;6.40;99.90
47765;DHT22;33529;49.242;8.670;2023-04-02T18:46:30;6.30;99.90
47765;DHT22;33529;49.242;8.670;2023-04-02T18:51:48;6.30;99.90
47765;DHT22;33529;49.242;8.670;2023-04-02T18:54:39;6.20;99.90
47765;DHT22;33529;49.242;8.670;2023-04-02T18:57:12;6.20;99.90
47765;DHT22;33529;49.242;8.670;2023-04-02T19:04:59;5.90;99.90
47765;DHT22;33529;49.242;8.670;2023-04-02T19:07:28;5.90;99.90
47765;DHT22;33529;49.242;8.670;2023-04-02T19:10:00;5.80;99.90
47765;DHT22;33529;49.242;8.670;2023-04-02T19:12:28;5.70;99.90
47765;DHT22;33529;49.242;8.670;2023-04-02T19:14:59;5.60;99.90
47765;DHT22;33529;49.242;8.670;2023-04-02T19:17:34;5.70;99.90
47765;DHT22;33529;49.242;8.670;2023-04-02T19:20:32;5.60;99.90
47765;DHT22;33529;49.242;8.670;2023-04-02T19:26:05;5.60;99.90
47765;DHT22;33529;49.242;8.670;2023-04-02T19:28:39;5.50;99.90
47765;DHT22;33529;49.242;8.670;2023-04-02T19:31:28;5.40;99.90
47765;DHT22;33529;49.242;8.670;2023-04-02T19:37:14;5.50;99.90
47765;DHT22;33529;49.242;8.670;2023-04-02T19:40:02;5.40;99.90
47765;DHT22;33529;49.242;8.670;2023-04-02T19:45:02;5.40;99.90
47765;DHT22;33529;49.242;8.670;2023-04-02T19:47:29;5.40;99.90
47765;DHT22;33529;49.242;8.670;2023-04-02T19:49:56;5.30;99.90
47765;DHT22;33529;49.242;8.670;2023-04-02T19:52:22;5.40;99.90
47765;DHT22;33529;49.242;8.670;2023-04-02T19:54:49;5.30;99.90
47765;DHT22;33529;49.242;8.670;2023-04-02T19:57:16;5.30;99.90
47765;DHT22;33529;49.242;8.670;2023-04-02T19:59:43;5.30;99.90
47765;DHT22;33529;49.242;8.670;2023-04-02T20:02:10;5.40;99.90
47765;DHT22;33529;49.242;8.670;2023-04-02T20:04:37;5.30;99.90
47765;DHT22;33529;49.242;8.670;2023-04-02T20:07:03;5.30;99.90
47765;DHT22;33529;49.242;8.670;2023-04-02T20:09:31;5.30;99.90
47765;DHT22;33529;49.242;8.670;2023-04-02T20:11:57;5.30;99.90
47765;DHT22;33529;49.242;8.670;2023-04-02T20:14:24;5.30;99.90
47765;DHT22;33529;49.242;8.670;2023-04-02T20:16:51;5.20;99.90
47765;DHT22;33529;49.242;8.670;2023-04-02T20:19:18;5.30;99.90
47765;DHT22;33529;49.242;8.670;2023-04-02T20:21:45;5.30;99.90
47765;DHT22;33529;49.242;8.670;2023-04-02T20:24:11;5.20;99.90
47765;DHT22;33529;49.242;8.670;2023-04-02T20:26:38;5.20;99.90
47765;DHT22;33529;49.242;8.670;2023-04-02T20:29:05;5.20;99.90
47765;DHT22;33529;49.242;8.670;2023-04-02T20:31:32;5.30;99.90
47765;DHT22;33529;49.242;8.670;2023-04-02T20:33:59;5.20;99.90
47765;DHT22;33529;49.242;8.670;2023-04-02T20:36:28;5.20;99.90
47765;DHT22;33529;49.242;8.670;2023-04-02T20:38:54;5.20;99.90
47765;DHT22;33529;49.242;8.670;2023-04-02T20:41:22;5.20;99.90
47765;DHT22;33529;49.242;8.670;2023-04-02T20:43:49;5.10;99.90
47765;DHT22;33529;49.242;8.670;2023-04-02T20:46:16;5.20;99.90
47765;DHT22;33529;49.242;8.670;2023-04-02T20:48:43;5.20;99.90
47765;DHT22;33529;49.242;8.670;2023-04-02T20:51:12;5.30;99.90
47765;DHT22;33529;49.242;8.670;2023-04-02T20:53:40;5.20;99.90
47765;DHT22;33529;49.242;8.670;2023-04-02T20:56:15;5.20;99.90
47765;DHT22;33529;49.242;8.670;2023-04-02T20:58:42;5.20;99.90